Time;durP1;ratioP1;P1;durP2;ratioP2;P2;SDS_P1;SDS_P2;PMS_P1;PMS_P2;Temp;Humidity;BMP_temperature;BMP_pressure;BME280_temperature;BME280_humidity;BME280_pressure;Samples;Min_cycle;Max_cycle;Signal;HPM_P1;HPM_P2
2022/07/28 00:01:21;;;;;;;2.63;2.53;;;;;;;14.56;100.00;101864.34;5209994;28;20032;-82
2022/07/28 00:03:51;;;;;;;3.63;3.38;;;;;;;14.52;100.00;101860.50;5211498;28;20026;-81
2022/07/28 00:06:22;;;;;;;7.65;3.13;;;;;;;14.58;100.00;101867.63;5211851;28;20429;-82
2022/07/28 00:08:53;;;;;;;3.20;3.05;;;;;;;14.38;100.00;101840.22;5196272;28;20515;-81
2022/07/28 00:11:24;;;;;;;4.95;3.35;;;;;;;14.51;100.00;101858.84;5213256;28;20041;-82
2022/07/28 00:13:54;;;;;;;3.60;3.20;;;;;;;14.31;100.00;101832.28;5211642;28;20081;-82
2022/07/28 00:16:25;;;;;;;3.30;3.13;;;;;;;14.26;100.00;101828.69;5211360;28;20026;-81
2022/07/28 00:18:55;;;;;;;8.15;3.00;;;;;;;14.45;100.00;101860.69;5206032;28;20048;-82
2022/07/28 00:21:26;;;;;;;3.15;2.85;;;;;;;14.44;100.00;101861.75;5188663;28;20537;-82
2022/07/28 00:23:56;;;;;;;3.95;3.63;;;;;;;14.38;100.00;101848.38;5200788;28;20051;-82
2022/07/28 00:26:26;;;;;;;4.07;3.78;;;;;;;14.36;100.00;101850.53;5194442;28;20412;-82
2022/07/28 00:28:57;;;;;;;3.38;2.65;;;;;;;14.24;100.00;101839.00;5188882;28;20022;-81
2022/07/28 00:31:27;;;;;;;4.60;3.47;;;;;;;14.15;100.00;101834.00;5188986;28;20092;-81
2022/07/28 00:33:57;;;;;;;6.68;3.42;;;;;;;14.31;100.00;101859.44;5188751;28;20018;-81
2022/07/28 00:36:28;;;;;;;3.15;2.95;;;;;;;14.29;100.00;101861.59;5188616;28;20037;-81
2022/07/28 00:38:58;;;;;;;3.97;3.00;;;;;;;14.21;100.00;101853.91;5187666;28;20022;-81
2022/07/28 00:41:29;;;;;;;4.13;2.85;;;;;;;14.14;100.00;101850.59;5197331;28;20024;-82
2022/07/28 00:43:59;;;;;;;3.38;3.08;;;;;;;14.11;100.00;101838.34;5208755;28;20025;-82
2022/07/28 00:46:30;;;;;;;3.80;3.13;;;;;;;13.83;100.00;101797.84;5208878;28;20036;-82
2022/07/28 00:49:00;;;;;;;3.80;3.03;;;;;;;13.99;100.00;101823.25;5188368;28;20044;-81
2022/07/28 00:51:31;;;;;;;4.57;3.83;;;;;;;14.09;100.00;101850.53;5197228;28;20564;-82
2022/07/28 00:54:02;;;;;;;5.45;3.97;;;;;;;14.06;100.00;101845.59;5208565;28;20364;-82
2022/07/28 00:56:33;;;;;;;3.83;2.92;;;;;;;14.02;100.00;101844.47;5208441;28;20025;-81
2022/07/28 00:59:04;;;;;;;3.65;3.33;;;;;;;13.97;100.00;101842.50;5193210;28;20024;-81
2022/07/28 01:01:34;;;;;;;2.45;2.30;;;;;;;13.94;100.00;101844.91;5210712;28;20029;-81
2022/07/28 01:04:05;;;;;;;3.75;2.78;;;;;;;13.79;100.00;101823.84;5214576;28;20026;-81
2022/07/28 01:07:01;;;;;;;6.28;3.72;;;;;;;13.86;100.00;101840.75;5214674;28;20033;-80
2022/07/28 01:09:32;;;;;;;2.40;2.35;;;;;;;13.84;100.00;101837.50;5214104;28;20017;-80
2022/07/28 01:12:33;;;;;;;8.27;3.25;;;;;;;13.82;100.00;101839.63;5212575;28;20080;-81
2022/07/28 01:15:35;;;;;;;3.47;2.78;;;;;;;13.79;100.00;101837.44;5211349;28;20018;-81
2022/07/28 01:18:14;;;;;;;2.90;2.80;;;;;;;13.59;100.00;101807.31;5200157;28;20056;-81
2022/07/28 01:20:56;;;;;;;5.32;3.97;;;;;;;13.67;100.00;101823.97;5192562;28;20037;-81
2022/07/28 01:23:36;;;;;;;2.72;2.53;;;;;;;13.70;100.00;101826.19;5192587;28;20108;-81
2022/07/28 01:26:40;;;;;;;3.55;2.53;;;;;;;13.68;100.00;101827.50;5193312;28;20032;-80
2022/07/28 01:29:20;;;;;;;3.88;2.85;;;;;;;13.65;100.00;101825.28;5193854;28;20085;-79
2022/07/28 01:32:14;;;;;;;9.57;3.42;;;;;;;13.59;100.00;101818.16;5193205;28;20022;-80
2022/07/28 01:34:54;;;;;;;2.85;2.67;;;;;;;13.43;100.00;101793.56;5190777;28;20038;-80
2022/07/28 01:37:27;;;;;;;;;;;;;;;13.59;100.00;101823.59;5192476;28;20041;-81
2022/07/28 01:40:00;;;;;;;9.45;3.13;;;;;;;13.56;100.00;101830.38;5191209;28;19909;-80
2022/07/28 01:42:36;;;;;;;3.17;2.97;;;;;;;13.43;100.00;101815.25;5191419;28;20549;-81
2022/07/28 01:45:07;;;;;;;2.97;2.88;;;;;;;13.45;100.00;101815.00;5189605;28;20026;-81
2022/07/28 01:47:42;;;;;;;3.58;3.25;;;;;;;13.27;100.00;101799.06;5190517;28;20025;-80
2022/07/28 01:50:14;;;;;;;2.50;2.33;;;;;;;13.33;100.00;101811.59;5191357;28;20025;-80
2022/07/28 01:52:47;;;;;;;2.78;2.67;;;;;;;13.29;100.00;101797.69;5191108;28;20021;-80
2022/07/28 01:55:20;;;;;;;3.63;3.28;;;;;;;12.87;100.00;101739.59;5191099;28;20493;-83
2022/07/28 01:57:53;;;;;;;3.85;3.00;;;;;;;13.25;100.00;101802.00;5191220;28;20145;-81
2022/07/28 02:00:25;;;;;;;10.25;3.20;;;;;;;13.17;100.00;101803.25;5191443;28;20061;-81
2022/07/28 02:02:57;;;;;;;3.33;3.13;;;;;;;12.98;100.00;101768.50;5191089;28;20033;-80
2022/07/28 02:05:29;;;;;;;2.92;2.83;;;;;;;13.15;100.00;101807.25;5189008;28;20014;-81
2022/07/28 02:08:01;;;;;;;3.65;3.38;;;;;;;13.11;100.00;101800.69;5191037;28;20395;-80
2022/07/28 02:10:33;;;;;;;12.30;2.67;;;;;;;12.93;100.00;101779.28;5189991;28;20030;-80
2022/07/28 02:13:04;;;;;;;10.05;4.05;;;;;;;12.93;100.00;101788.25;5206421;28;20029;-81
2022/07/28 02:15:36;;;;;;;2.38;2.28;;;;;;;12.70;100.00;101754.03;5189522;28;20030;-81
2022/07/28 02:18:09;;;;;;;3.17;3.00;;;;;;;12.78;100.00;101786.09;5189531;28;20443;-81
2022/07/28 02:20:40;;;;;;;6.07;2.50;;;;;;;12.84;100.00;101795.13;5189349;28;20032;-81
2022/07/28 02:23:13;;;;;;;3.03;2.92;;;;;;;12.85;100.00;101804.91;5190382;28;20108;-81
2022/07/28 02:25:45;;;;;;;2.88;2.78;;;;;;;12.82;100.00;101805.41;5191934;28;20404;-82
2022/07/28 02:28:17;;;;;;;4.25;4.05;;;;;;;12.62;100.00;101769.88;5191262;28;20030;-82
2022/07/28 02:30:58;;;;;;;4.75;2.88;;;;;;;12.76;100.00;101801.78;5190296;28;20026;-81
2022/07/28 02:33:33;;;;;;;8.98;3.70;;;;;;;12.71;100.00;101799.00;5198718;28;20049;-82
2022/07/28 02:36:09;;;;;;;6.53;3.50;;;;;;;12.56;100.00;101793.34;5211385;28;20089;-82
2022/07/28 02:38:52;;;;;;;2.65;2.55;;;;;;;12.54;100.00;101784.66;5209661;28;20025;-82
2022/07/28 02:41:26;;;;;;;3.78;3.42;;;;;;;12.66;100.00;101820.63;5209055;28;20047;-82
2022/07/28 02:44:00;;;;;;;3.08;2.97;;;;;;;12.67;100.00;101802.47;5210676;28;20116;-82
2022/07/28 02:46:39;;;;;;;3.15;3.05;;;;;;;12.63;100.00;101799.44;5210975;28;20030;-82
2022/07/28 02:49:13;;;;;;;3.20;2.97;;;;;;;12.60;100.00;101799.91;5209798;28;20027;-81
2022/07/28 02:51:45;;;;;;;2.92;2.72;;;;;;;12.55;100.00;101786.28;5208402;28;20408;-81
2022/07/28 02:54:16;;;;;;;4.50;2.33;;;;;;;12.58;100.00;101799.34;5193188;28;20060;-81
2022/07/28 02:56:49;;;;;;;2.70;2.60;;;;;;;12.57;100.00;101788.75;5191150;28;20030;-82
2022/07/28 02:59:21;;;;;;;8.18;3.40;;;;;;;12.41;100.00;101771.44;5207727;28;20032;-80
2022/07/28 03:01:52;;;;;;;3.47;3.28;;;;;;;12.55;100.00;101786.28;5208678;28;20087;-80
2022/07/28 03:07:13;;;;;;;3.33;3.13;;;;;;;12.45;100.00;101791.53;5209030;28;20036;-80
2022/07/28 03:09:45;;;;;;;4.00;3.80;;;;;;;12.44;100.00;101779.06;5209175;28;20021;-81
2022/07/28 03:12:15;;;;;;;3.35;3.00;;;;;;;12.47;100.00;101784.81;5208915;28;20061;-81
2022/07/28 03:14:46;;;;;;;4.15;3.78;;;;;;;12.48;100.00;101778.31;5190503;28;20056;-81
2022/07/28 03:17:16;;;;;;;2.75;2.65;;;;;;;12.36;100.00;101761.34;5187579;28;20029;-82
2022/07/28 03:19:46;;;;;;;2.15;1.95;;;;;;;12.18;100.00;101735.28;5189983;28;20040;-81
2022/07/28 03:22:17;;;;;;;2.90;2.80;;;;;;;12.41;100.00;101769.56;5188893;28;20396;-80
2022/07/28 03:24:51;;;;;;;3.45;3.25;;;;;;;12.12;100.00;101721.94;5189011;28;20060;-80
2022/07/28 03:27:27;;;;;;;3.50;3.30;;;;;;;12.28;100.00;101755.50;5208251;28;20029;-80
2022/07/28 03:30:08;;;;;;;2.65;2.45;;;;;;;12.44;100.00;101787.19;5206600;28;20026;-80
2022/07/28 03:32:49;;;;;;;9.90;4.35;;;;;;;12.41;100.00;101783.09;5208742;28;20509;-79
2022/07/28 03:35:20;;;;;;;3.40;3.20;;;;;;;12.35;100.00;101777.84;5206893;28;20112;-80
2022/07/28 03:38:09;;;;;;;3.75;3.50;;;;;;;12.38;100.00;101780.06;5208033;28;20021;-80
2022/07/28 03:40:41;;;;;;;3.22;3.13;;;;;;;12.24;100.00;101759.75;5208630;28;20025;-80
2022/07/28 03:43:13;;;;;;;4.82;3.28;;;;;;;12.18;100.00;101753.44;5207239;28;20021;-81
2022/07/28 03:45:44;;;;;;;3.03;2.83;;;;;;;12.32;100.00;101787.28;5199611;28;20030;-81
2022/07/28 03:48:15;;;;;;;6.25;3.22;;;;;;;12.26;100.00;101788.25;5189059;28;20512;-81
2022/07/28 03:50:46;;;;;;;4.95;3.10;;;;;;;12.12;100.00;101762.56;5188825;28;20060;-81
2022/07/28 03:53:22;;;;;;;4.78;3.00;;;;;;;12.27;100.00;101794.47;5189108;28;20022;-81
2022/07/28 03:55:53;;;;;;;4.05;3.67;;;;;;;12.28;100.00;101801.53;5199166;28;20022;-81
2022/07/28 03:58:25;;;;;;;4.45;2.78;;;;;;;12.16;100.00;101771.81;5208059;28;20025;-81
2022/07/28 04:00:56;;;;;;;3.03;2.92;;;;;;;12.15;100.00;101786.41;5208539;28;20026;-81
2022/07/28 04:03:27;;;;;;;5.35;2.83;;;;;;;12.22;100.00;101794.38;5200684;28;20029;-81
2022/07/28 04:05:57;;;;;;;4.10;3.72;;;;;;;12.09;100.00;101769.28;5189456;28;20025;-81
2022/07/28 04:08:28;;;;;;;5.75;3.90;;;;;;;12.10;100.00;101767.38;5189170;28;20025;-81
2022/07/28 04:10:58;;;;;;;3.83;3.42;;;;;;;12.05;100.00;101762.69;5208547;28;20032;-81
2022/07/28 04:13:30;;;;;;;3.42;3.13;;;;;;;12.26;100.00;101788.25;5209273;28;20022;-81
2022/07/28 04:16:01;;;;;;;3.78;3.53;;;;;;;12.24;100.00;101787.66;5209277;28;20055;-81
2022/07/28 04:18:32;;;;;;;3.75;3.45;;;;;;;12.20;100.00;101782.97;5210543;28;20029;-81
2022/07/28 04:21:03;;;;;;;4.53;4.13;;;;;;;12.11;100.00;101767.16;5208369;28;20021;-80
2022/07/28 04:23:33;;;;;;;3.85;3.58;;;;;;;12.29;100.00;101790.47;5208777;28;20018;-81
2022/07/28 04:26:04;;;;;;;2.38;2.38;;;;;;;12.15;100.00;101770.16;5207524;28;20021;-81
2022/07/28 04:28:34;;;;;;;4.35;3.47;;;;;;;12.13;100.00;101759.56;5207521;28;20060;-81
2022/07/28 04:31:04;;;;;;;4.00;3.80;;;;;;;12.17;100.00;101759.91;5209252;28;20028;-81
2022/07/28 04:33:35;;;;;;;3.33;3.15;;;;;;;12.31;100.00;101776.69;5199309;28;20121;-80
2022/07/28 04:36:05;;;;;;;4.55;3.38;;;;;;;12.16;100.00;101750.97;5191346;28;20054;-81
2022/07/28 04:38:36;;;;;;;3.80;3.60;;;;;;;12.29;100.00;101770.69;5210066;28;20024;-80
2022/07/28 04:41:06;;;;;;;3.08;2.88;;;;;;;12.26;100.00;101766.56;5213008;28;20018;-81
2022/07/28 04:43:37;;;;;;;3.88;3.50;;;;;;;12.34;100.00;101768.06;5203655;28;20033;-82
2022/07/28 04:46:07;;;;;;;4.05;3.08;;;;;;;12.35;100.00;101767.81;5192460;28;20029;-81
2022/07/28 04:48:38;;;;;;;4.35;4.03;;;;;;;12.54;100.00;101795.47;5209941;28;20026;-81
2022/07/28 04:51:08;;;;;;;6.03;4.63;;;;;;;12.65;100.00;101789.16;5212324;28;20028;-79
2022/07/28 04:53:39;;;;;;;3.20;3.08;;;;;;;12.67;100.00;101781.63;5212504;28;20022;-80
2022/07/28 04:56:09;;;;;;;7.28;3.58;;;;;;;12.64;100.00;101779.41;5212531;28;20120;-80
2022/07/28 04:58:40;;;;;;;4.20;3.90;;;;;;;12.75;100.00;101789.31;5210472;22;20056;-80
2022/07/28 05:01:12;;;;;;;5.30;4.32;;;;;;;12.77;100.00;101779.03;5192547;28;20034;-80
2022/07/28 05:03:42;;;;;;;3.88;3.67;;;;;;;12.76;100.00;101774.69;5190301;28;20109;-79
2022/07/28 05:06:13;;;;;;;3.88;3.67;;;;;;;12.90;100.00;101787.91;5192761;28;20053;-80
2022/07/28 05:08:43;;;;;;;3.72;3.47;;;;;;;12.87;100.00;101783.81;5192022;28;20550;-80
2022/07/28 05:11:14;;;;;;;3.97;3.05;;;;;;;12.95;100.00;101779.84;5192995;28;20026;-80
2022/07/28 05:13:44;;;;;;;3.65;3.45;;;;;;;13.04;100.00;101781.06;5190789;28;20444;-78
2022/07/28 05:16:14;;;;;;;5.40;3.38;;;;;;;13.10;100.00;101786.31;5192210;28;20092;-80
2022/07/28 05:18:45;;;;;;;2.72;2.63;;;;;;;13.14;100.00;101779.31;5194241;28;20208;-80
2022/07/28 05:21:15;;;;;;;7.43;4.35;;;;;;;13.08;100.00;101749.66;5211191;28;20131;-80
2022/07/28 05:23:46;;;;;;;3.13;3.00;;;;;;;13.15;100.00;101748.44;5213422;28;20472;-80
2022/07/28 05:26:16;;;;;;;4.32;3.92;;;;;;;13.34;100.00;101773.34;5212424;28;20036;-80
2022/07/28 05:28:46;;;;;;;5.00;3.95;;;;;;;13.43;100.00;101780.00;5212279;28;20025;-80
2022/07/28 05:31:17;;;;;;;4.22;3.67;;;;;;;13.52;100.00;101773.06;5212855;28;20427;-80
2022/07/28 05:33:47;;;;;;;3.15;3.05;;;;;;;13.60;100.00;101776.38;5211414;28;20029;-80
2022/07/28 05:36:18;;;;;;;3.95;3.75;;;;;;;13.65;100.00;101774.53;5211803;28;20060;-80
2022/07/28 05:38:48;;;;;;;5.35;3.25;;;;;;;13.61;100.00;101767.97;5211406;28;20030;-79
2022/07/28 05:41:18;;;;;;;8.70;4.75;;;;;;;13.55;100.00;101755.44;5209716;28;20120;-79
2022/07/28 05:43:49;;;;;;;3.38;3.17;;;;;;;13.78;100.00;101778.78;5211746;28;20053;-79
2022/07/28 05:46:19;;;;;;;3.53;3.33;;;;;;;13.78;100.00;101757.06;5210942;28;20505;-80
2022/07/28 05:48:50;;;;;;;3.70;3.53;;;;;;;13.77;100.00;101755.41;5213283;28;20032;-80
2022/07/28 05:51:21;;;;;;;3.95;3.65;;;;;;;13.56;100.00;101718.28;5216205;28;20021;-84
2022/07/28 05:53:51;;;;;;;4.10;3.70;;;;;;;13.97;100.00;101780.06;5216633;28;20030;-82
2022/07/28 05:56:22;;;;;;;3.08;2.97;;;;;;;13.79;100.00;101750.56;5215105;28;20027;-79
2022/07/28 05:58:52;;;;;;;3.90;3.67;;;;;;;14.00;100.00;101776.00;5214286;28;20156;-82
2022/07/28 06:01:22;;;;;;;5.38;3.55;;;;;;;14.04;100.00;101777.97;5215415;28;20485;-82
2022/07/28 06:03:53;;;;;;;3.97;3.65;;;;;;;13.83;100.00;101741.66;5215759;28;20026;-82
2022/07/28 06:06:23;;;;;;;5.25;2.65;;;;;;;13.93;100.00;101749.03;5219675;28;20025;-84
2022/07/28 06:08:54;;;;;;;4.32;4.03;;;;;;;13.96;100.00;101753.16;5199013;28;20033;-82
2022/07/28 06:11:24;;;;;;;5.95;4.50;;;;;;;13.98;100.00;101751.00;5196209;28;20037;-83
2022/07/28 06:13:55;;;;;;;4.57;4.28;;;;;;;13.96;100.00;101758.59;5195128;28;20022;-83
2022/07/28 06:16:25;;;;;;;7.75;4.30;;;;;;;14.05;100.00;101781.50;5196289;28;20018;-83
2022/07/28 06:18:56;;;;;;;6.05;4.55;;;;;;;13.80;100.00;101744.88;5196540;28;20472;-83
2022/07/28 06:21:26;;;;;;;3.65;3.35;;;;;;;13.87;100.00;101747.34;5203189;28;20017;-83
2022/07/28 06:23:57;;;;;;;11.48;4.38;;;;;;;14.12;100.00;101784.84;5215657;28;20036;-83
2022/07/28 06:26:27;;;;;;;6.55;3.85;;;;;;;14.18;100.00;101791.94;5215766;28;20455;-84
2022/07/28 06:28:57;;;;;;;4.47;3.97;;;;;;;14.16;100.00;101780.50;5216564;28;20391;-83
2022/07/28 06:31:28;;;;;;;3.75;3.47;;;;;;;14.21;100.00;101783.25;5217124;28;20028;-83
2022/07/28 06:33:58;;;;;;;4.28;3.65;;;;;;;14.15;100.00;101766.09;5216414;28;20021;-82
2022/07/28 06:36:28;;;;;;;4.80;4.40;;;;;;;14.07;100.00;101733.16;5209095;28;20079;-83
2022/07/28 06:38:59;;;;;;;4.57;4.22;;;;;;;14.32;100.00;101746.97;5196551;28;20248;-83
2022/07/28 06:41:29;;;;;;;3.85;3.63;;;;;;;14.72;100.00;101772.88;5196606;28;20056;-83
2022/07/28 06:44:00;;;;;;;3.28;3.15;;;;;;;14.74;100.00;101747.03;5196259;28;20022;-82
2022/07/28 06:46:30;;;;;;;4.43;3.72;;;;;;;15.03;100.00;101757.53;5197450;28;20026;-82
2022/07/28 06:49:04;;;;;;;6.20;4.00;;;;;;;15.22;100.00;101761.44;5194632;28;20036;-82
2022/07/28 06:51:35;;;;;;;4.80;3.28;;;;;;;15.47;100.00;101771.63;5194247;28;20076;-83
2022/07/28 06:54:05;;;;;;;3.42;3.33;;;;;;;15.29;100.00;101734.00;5195253;28;20018;-84
2022/07/28 06:56:36;;;;;;;3.28;3.08;;;;;;;15.32;100.00;101728.81;5196628;28;20026;-82
2022/07/28 06:59:06;;;;;;;4.95;4.13;;;;;;;15.10;100.00;101660.19;5195824;28;20034;-83
2022/07/28 07:01:36;;;;;;;4.07;3.83;;;;;;;16.05;100.00;101781.34;5195841;28;20056;-82
2022/07/28 07:04:07;;;;;;;4.18;3.83;;;;;;;15.85;100.00;101721.41;5197081;28;20026;-82
2022/07/28 07:06:38;;;;;;;7.28;4.80;;;;;;;16.34;100.00;101750.84;5197760;28;20018;-83
2022/07/28 07:09:08;;;;;;;4.13;3.08;;;;;;;16.60;100.00;101781.66;5197522;28;20444;-82
2022/07/28 07:11:40;;;;;;;4.57;4.20;;;;;;;16.43;100.00;101741.03;5196173;28;20032;-83
2022/07/28 07:14:10;;;;;;;3.85;3.65;;;;;;;16.23;100.00;101695.50;5195900;28;20450;-81
2022/07/28 07:16:40;;;;;;;3.85;3.42;;;;;;;16.83;100.00;101773.72;5196982;28;20032;-84
2022/07/28 07:19:11;;;;;;;3.17;2.92;;;;;;;17.03;100.00;101770.16;5196233;28;20112;-83
2022/07/28 07:21:41;;;;;;;5.85;3.47;;;;;;;17.02;100.00;101729.50;5196129;28;20045;-83
2022/07/28 07:24:12;;;;;;;5.80;3.20;;;;;;;17.37;100.00;101770.28;5196228;28;20096;-83
2022/07/28 07:26:42;;;;;;;4.63;3.10;;;;;;;17.56;100.00;101775.97;5196344;28;20025;-82
2022/07/28 07:29:13;;;;;;;3.45;3.22;;;;;;;17.70;100.00;101762.53;5196382;28;20082;-83
2022/07/28 07:31:43;;;;;;;8.63;4.47;;;;;;;17.92;100.00;101738.34;5194958;28;20034;-83
2022/07/28 07:34:15;;;;;;;4.72;3.95;;;;;;;18.22;100.00;101770.91;5196156;28;20085;-83
2022/07/28 07:36:45;;;;;;;6.85;4.03;;;;;;;18.43;100.00;101765.31;5195376;28;20105;-83
2022/07/28 07:39:16;;;;;;;3.03;2.72;;;;;;;18.29;100.00;101726.84;5196526;28;20049;-83
2022/07/28 07:41:47;;;;;;;3.10;2.90;;;;;;;18.60;100.00;101745.75;5195464;28;20502;-83
2022/07/28 07:44:17;;;;;;;13.13;5.00;;;;;;;18.74;100.00;101750.28;5196553;28;20021;-82
2022/07/28 07:46:48;;;;;;;4.35;3.83;;;;;;;18.35;100.00;101713.97;5196333;28;20112;-83
2022/07/28 07:49:18;;;;;;;7.43;3.38;;;;;;;18.55;100.00;101761.06;5197546;28;20029;-83
2022/07/28 07:51:48;;;;;;;3.72;3.13;;;;;;;18.47;100.00;101755.44;5195963;28;20022;-83
2022/07/28 07:54:20;;;;;;;5.38;3.67;;;;;;;18.40;100.00;101722.13;5198644;28;20045;-83
2022/07/28 07:56:51;;;;;;;4.57;4.18;;;;;;;18.53;100.00;101686.69;5197269;28;20428;-83
2022/07/28 07:59:21;;;;;;;4.72;2.60;;;;;;;19.09;100.00;101734.56;5197542;28;20034;-84
2022/07/28 08:01:54;;;;;;;4.15;3.85;;;;;;;18.58;100.00;101671.34;5194506;28;20785;-83
2022/07/28 08:04:24;;;;;;;4.18;3.78;;;;;;;19.01;100.00;101751.63;5195998;28;20034;-83
2022/07/28 08:06:55;;;;;;;4.10;3.80;;;;;;;18.98;100.00;101752.22;5198188;28;20022;-83
2022/07/28 08:09:26;;;;;;;4.70;2.97;;;;;;;18.99;100.00;101729.22;5203733;23;20045;-66
2022/07/28 08:11:56;;;;;;;3.35;3.15;;;;;;;19.05;100.00;101736.25;5195318;28;20430;-65
2022/07/28 08:14:26;;;;;;;5.45;5.05;;;;;;;19.16;100.00;101729.53;5203476;28;20453;-64
2022/07/28 08:16:58;;;;;;;4.40;4.10;;;;;;;19.40;100.00;101745.94;5202611;28;20437;-64
2022/07/28 08:19:28;;;;;;;3.38;3.13;;;;;;;19.62;100.00;101737.22;5202297;28;20504;-64
2022/07/28 08:22:00;;;;;;;3.47;3.17;;;;;;;19.71;100.00;101730.75;5202825;28;20109;-63
2022/07/28 08:24:30;;;;;;;4.90;4.50;;;;;;;19.62;100.00;101726.25;5201669;28;20079;-63
2022/07/28 08:27:01;;;;;;;3.30;3.10;;;;;;;19.73;100.00;101725.78;5200194;28;20417;-64
2022/07/28 08:29:32;;;;;;;4.95;4.47;;;;;;;19.66;100.00;101730.00;5202812;28;20528;-63
2022/07/28 08:32:03;;;;;;;4.07;3.22;;;;;;;19.63;100.00;101720.47;5203228;28;20030;-63
2022/07/28 08:34:34;;;;;;;8.50;3.42;;;;;;;19.70;100.00;101715.41;5202636;28;20370;-64
2022/07/28 08:37:04;;;;;;;4.72;4.43;;;;;;;19.55;100.00;101707.44;5202576;28;20386;-63
2022/07/28 08:39:35;;;;;;;5.68;3.25;;;;;;;19.50;100.00;101711.06;5202198;28;20048;-64
2022/07/28 08:42:07;;;;;;;3.42;3.13;;;;;;;19.57;100.00;101707.13;5203113;28;20040;-63
2022/07/28 08:44:53;;;;;;;3.03;2.83;;;;;;;19.84;100.00;101704.53;5202502;28;20037;-62
2022/07/28 08:47:26;;;;;;;5.63;3.10;;;;;;;20.14;100.00;101693.09;5201758;28;20036;-64
2022/07/28 08:49:58;;;;;;;3.60;3.15;;;;;;;20.39;100.00;101696.53;5201706;28;20030;-64
2022/07/28 08:52:30;;;;;;;3.08;2.95;;;;;;;20.58;100.00;101689.03;5202684;28;20049;-63
2022/07/28 08:55:03;;;;;;;3.38;2.63;;;;;;;20.58;100.00;101655.28;5202066;28;20029;-64
2022/07/28 08:57:36;;;;;;;3.08;2.90;;;;;;;20.77;100.00;101695.28;5202504;28;20025;-69
2022/07/28 09:00:09;;;;;;;3.55;2.50;;;;;;;20.54;100.00;101693.50;5202803;28;20491;-64
2022/07/28 09:02:45;;;;;;;2.85;2.65;;;;;;;20.54;100.00;101682.50;5203159;28;20036;-64
2022/07/28 09:05:16;;;;;;;3.92;2.28;;;;;;;20.67;100.00;101700.13;5201928;28;20033;-64
2022/07/28 09:07:51;;;;;;;4.43;3.38;;;;;;;20.66;100.00;101695.75;5204289;28;20049;-64
2022/07/28 09:10:22;;;;;;;4.18;3.53;;;;;;;20.85;100.00;101699.22;5204120;28;20033;-65
2022/07/28 09:12:54;;;;;;;6.57;2.65;;;;;;;20.93;100.00;101690.28;5205179;28;20029;-67
2022/07/28 09:15:24;;;;;;;2.70;2.50;;;;;;;20.90;100.00;101690.88;5204935;28;20535;-67
2022/07/28 09:17:55;;;;;;;10.55;3.22;;;;;;;20.90;100.00;101694.44;5205670;28;20025;-67
2022/07/28 09:20:28;;;;;;;4.10;2.80;;;;;;;20.88;100.00;101688.44;5203652;28;20021;-64
2022/07/28 09:23:01;;;;;;;2.80;2.70;;;;;;;20.76;100.00;101706.53;5206182;28;20021;-64
2022/07/28 09:25:32;;;;;;;4.93;2.47;;;;;;;20.76;100.00;101682.66;5189004;28;20034;-64
2022/07/28 09:28:12;;;;;;;4.72;2.90;;;;;;;20.95;100.00;101692.72;5207782;28;20056;-64
2022/07/28 09:30:44;;;;;;;;;;;;;;;21.01;100.00;101700.56;5208054;28;20032;-64
2022/07/28 09:33:14;;;;;;;4.90;2.63;;;;;;;21.31;100.00;101690.88;5190975;28;20419;-64
2022/07/28 09:35:53;;;;;;;3.80;3.53;;;;;;;21.33;100.00;101677.66;5205914;28;20022;-63
2022/07/28 09:38:25;;;;;;;;;;;;;;;21.54;100.00;101694.50;5204175;28;20445;-63
2022/07/28 09:41:07;;;;;;;5.00;2.47;;;;;;;21.52;100.00;101703.03;5190999;28;19916;-63
2022/07/28 09:43:41;;;;;;;3.85;3.38;;;;;;;21.33;100.00;101702.38;5204838;28;20021;-64
2022/07/28 09:46:15;;;;;;;5.43;2.72;;;;;;;21.39;100.00;101697.56;5205143;28;20060;-63
2022/07/28 09:48:48;;;;;;;3.58;3.00;;;;;;;21.51;99.78;101695.09;5203711;28;20079;-63
2022/07/28 09:51:30;;;;;;;3.60;3.40;;;;;;;21.73;100.00;101699.81;5205138;28;20064;-64
2022/07/28 09:54:12;;;;;;;3.08;2.80;;;;;;;21.75;98.70;101697.56;5203781;28;20049;-64
2022/07/28 09:56:44;;;;;;;3.38;2.97;;;;;;;21.79;96.91;101701.34;5204708;28;20049;-64
2022/07/28 09:59:16;;;;;;;6.05;5.05;;;;;;;21.70;97.31;101697.69;5204128;28;20422;-64
2022/07/28 10:01:57;;;;;;;3.15;2.85;;;;;;;21.70;96.61;101693.00;5205205;28;20049;-63
2022/07/28 10:04:34;;;;;;;3.33;3.03;;;;;;;22.06;97.54;101689.44;5204765;28;20025;-64
2022/07/28 10:07:18;;;;;;;3.90;1.80;;;;;;;22.37;94.43;101681.22;5204783;28;20029;-63
2022/07/28 10:10:18;;;;;;;2.10;2.00;;;;;;;22.32;91.33;101681.34;5204331;28;20098;-64
2022/07/28 10:12:49;;;;;;;2.78;2.67;;;;;;;22.36;93.14;101683.16;5204121;28;20061;-63
2022/07/28 10:18:09;;;;;;;2.10;2.00;;;;;;;22.80;89.53;101678.69;5204943;28;20083;-64
2022/07/28 10:20:39;;;;;;;3.42;3.22;;;;;;;22.82;92.63;101663.44;5203288;28;20116;-63
2022/07/28 10:23:11;;;;;;;2.58;2.38;;;;;;;22.90;89.92;101667.38;5204928;28;20017;-64
2022/07/28 10:25:43;;;;;;;4.00;2.50;;;;;;;22.71;89.51;101666.78;5204485;28;20153;-63
2022/07/28 10:28:17;;;;;;;4.38;2.10;;;;;;;22.66;90.42;101665.00;5204263;28;20072;-63
2022/07/28 10:30:53;;;;;;;2.38;2.28;;;;;;;22.75;88.80;101663.09;5204295;28;20032;-62
2022/07/28 10:33:26;;;;;;;3.08;1.88;;;;;;;22.93;90.57;101665.91;5203287;28;20030;-63
2022/07/28 10:35:58;;;;;;;1.75;1.65;;;;;;;22.78;88.72;101656.97;5204728;28;20500;-64
2022/07/28 10:38:34;;;;;;;2.38;2.28;;;;;;;22.77;88.62;101660.84;5204431;28;20025;-63
2022/07/28 10:41:07;;;;;;;2.92;2.83;;;;;;;22.50;88.18;101653.59;5203929;28;20070;-64
2022/07/28 10:43:39;;;;;;;2.28;2.05;;;;;;;22.70;89.89;101651.41;5186377;28;20014;-65
2022/07/28 10:46:10;;;;;;;1.58;1.58;;;;;;;22.76;86.24;101653.69;5204474;28;20025;-64
2022/07/28 10:48:41;;;;;;;3.15;2.17;;;;;;;22.93;86.54;101632.88;5203066;28;20021;-65
2022/07/28 10:51:13;;;;;;;2.05;1.85;;;;;;;23.23;86.09;101643.78;5203584;28;20037;-65
2022/07/28 10:53:52;;;;;;;5.72;2.78;;;;;;;23.59;85.48;101633.63;5203916;28;20401;-65
2022/07/28 10:56:54;;;;;;;1.77;1.67;;;;;;;23.35;82.56;101585.28;5193452;28;20030;-65
2022/07/28 10:59:48;;;;;;;2.30;2.20;;;;;;;23.32;82.12;101638.28;5198379;23;20057;-62
2022/07/28 11:02:42;;;;;;;4.63;2.33;;;;;;;23.21;82.28;101631.47;5183349;28;20113;-62
2022/07/28 11:05:38;;;;;;;2.05;1.95;;;;;;;23.53;82.01;101636.53;5181783;28;20442;-62
2022/07/28 11:08:27;;;;;;;2.70;2.17;;;;;;;23.53;81.33;101632.97;5201988;28;20044;-63
2022/07/28 11:10:57;;;;;;;2.47;2.37;;;;;;;23.45;79.61;101620.75;5202212;28;20547;-62
2022/07/28 11:13:30;;;;;;;5.53;2.75;;;;;;;23.69;80.25;101619.47;5201954;28;20241;-63
2022/07/28 11:16:13;;;;;;;2.28;2.03;;;;;;;23.76;80.81;101614.28;5202422;28;20096;-60
2022/07/28 11:19:06;;;;;;;2.60;1.95;;;;;;;23.90;80.09;101614.94;5202994;28;20036;-63
2022/07/28 11:21:36;;;;;;;2.72;2.63;;;;;;;24.13;79.79;101618.28;5204193;28;20092;-63
2022/07/28 11:24:06;;;;;;;2.63;2.47;;;;;;;24.50;78.90;101625.81;5200476;28;20109;-63
2022/07/28 11:26:37;;;;;;;2.88;2.78;;;;;;;24.74;77.31;101608.63;5200624;28;20033;-63
2022/07/28 11:29:11;;;;;;;4.18;3.13;;;;;;;24.76;76.62;101619.34;5201824;28;20033;-62
2022/07/28 11:31:46;;;;;;;4.43;2.97;;;;;;;24.85;74.63;101612.59;5201687;28;20092;-63
2022/07/28 11:34:20;;;;;;;2.33;2.22;;;;;;;24.57;73.81;101625.25;5201846;28;20080;-63
2022/07/28 11:36:56;;;;;;;6.85;2.22;;;;;;;24.33;73.95;101623.09;5203442;28;20378;-64
2022/07/28 11:39:32;;;;;;;2.25;2.05;;;;;;;24.44;74.53;101613.31;5201275;28;20064;-64
2022/07/28 11:42:24;;;;;;;2.38;2.08;;;;;;;24.51;74.53;101615.56;5183132;28;20057;-64
2022/07/28 11:44:56;;;;;;;2.55;2.45;;;;;;;24.52;74.48;101614.44;5179978;28;20106;-63
2022/07/28 11:47:28;;;;;;;2.40;2.17;;;;;;;24.43;74.01;101610.88;5185236;28;20057;-61
2022/07/28 11:50:25;;;;;;;2.53;2.33;;;;;;;24.21;74.74;101604.44;5183989;28;20056;-63
2022/07/28 11:52:58;;;;;;;2.25;2.00;;;;;;;23.98;74.52;101594.75;5182764;28;20065;-64